createdAt,value
2022-09-25T00:00:00.579Z,56.30
2022-09-25T00:01:04.381Z,56.30
2022-09-25T00:02:09.136Z,56.20
2022-09-25T00:03:13.243Z,56.30
2022-09-25T00:04:16.778Z,56.30
2022-09-25T00:05:21.130Z,56.20
2022-09-25T00:06:26.496Z,56.20
2022-09-25T00:07:30.414Z,56.30
2022-09-25T00:08:36.051Z,56.20
2022-09-25T00:09:38.602Z,56.20
2022-09-25T00:10:49.945Z,56.20
2022-09-25T00:11:54.794Z,56.20
2022-09-25T00:12:57.914Z,56.20
2022-09-25T00:14:01.794Z,56.20
2022-09-25T00:15:08.078Z,56.10
2022-09-25T00:16:17.377Z,56.20
2022-09-25T00:17:20.069Z,56.20
2022-09-25T00:18:43.912Z,56.20
2022-09-25T00:19:52.583Z,56.20
2022-09-25T00:21:15.769Z,56.10
2022-09-25T00:22:19.085Z,56.20
2022-09-25T00:23:23.305Z,56.10
2022-09-25T00:24:29.719Z,56.20
2022-09-25T00:25:32.801Z,56.20
2022-09-25T00:26:39.529Z,56.20
2022-09-25T00:27:45.632Z,56.10
2022-09-25T00:28:48.411Z,56.20
2022-09-25T00:29:51.329Z,56.10
2022-09-25T00:31:09.789Z,56.10
2022-09-25T00:32:12.752Z,56.70
2022-09-25T00:33:19.203Z,56.10
2022-09-25T00:34:23.081Z,56.10
2022-09-25T00:35:25.976Z,56.10
2022-09-25T00:36:29.656Z,56.10
2022-09-25T00:37:36.102Z,56.10
2022-09-25T00:38:38.800Z,56.10
2022-09-25T00:39:42.023Z,56.10
2022-09-25T00:40:49.140Z,56.10
2022-09-25T00:41:55.458Z,56.10
2022-09-25T00:42:58.808Z,56.10
2022-09-25T00:44:05.785Z,56.10
2022-09-25T00:45:30.988Z,56.10
2022-09-25T00:46:44.725Z,56.10
2022-09-25T00:49:17.039Z,56.10
2022-09-25T00:50:33.796Z,56.10
2022-09-25T00:51:53.998Z,56.00
2022-09-25T00:53:04.031Z,56.00
2022-09-25T00:54:15.882Z,56.00
2022-09-25T00:55:19.064Z,56.00
2022-09-25T00:56:22.237Z,56.00
2022-09-25T00:57:31.002Z,56.00
2022-09-25T00:58:35.540Z,55.90
2022-09-25T00:59:43.255Z,56.00
2022-09-25T01:00:46.175Z,56.00
2022-09-25T01:01:50.251Z,55.90
2022-09-25T01:02:56.765Z,56.00
2022-09-25T01:04:00.066Z,56.00
2022-09-25T01:05:19.113Z,56.00
2022-09-25T01:06:25.612Z,55.90
2022-09-25T01:07:29.884Z,55.90
2022-09-25T01:08:35.096Z,55.90
2022-09-25T01:09:39.595Z,55.90
2022-09-25T01:10:43.116Z,55.90
2022-09-25T01:11:47.867Z,55.90
2022-09-25T01:12:53.485Z,55.90
2022-09-25T01:13:58.597Z,55.90
2022-09-25T01:15:02.158Z,55.90
2022-09-25T01:16:19.163Z,55.90
2022-09-25T01:17:33.168Z,55.90
2022-09-25T01:18:58.266Z,55.90
2022-09-25T01:20:29.623Z,55.90
2022-09-25T01:22:01.286Z,55.90
2022-09-25T01:23:54.574Z,55.90
2022-09-25T01:25:37.079Z,55.80
2022-09-25T01:26:54.457Z,56.40
2022-09-25T01:28:11.298Z,55.90
2022-09-25T01:29:41.773Z,56.40
2022-09-25T01:30:49.450Z,55.80
2022-09-25T01:32:04.869Z,55.80
2022-09-25T01:33:20.410Z,55.80
2022-09-25T01:34:41.022Z,55.80
2022-09-25T01:35:55.613Z,55.80
2022-09-25T01:37:10.277Z,55.80
2022-09-25T01:38:33.942Z,55.80
2022-09-25T01:40:18.098Z,55.80
2022-09-25T01:41:26.042Z,55.70
2022-09-25T01:42:39.304Z,55.80
2022-09-25T01:43:57.657Z,55.80
2022-09-25T01:45:11.269Z,55.70
2022-09-25T01:46:19.021Z,55.80
2022-09-25T01:47:27.926Z,55.70
2022-09-25T01:48:34.913Z,55.70
2022-09-25T01:49:51.059Z,55.70
2022-09-25T01:51:09.226Z,55.70
2022-09-25T01:52:17.344Z,55.70
2022-09-25T01:53:26.544Z,55.70
2022-09-25T01:54:32.433Z,55.70
2022-09-25T01:55:42.901Z,55.70
2022-09-25T01:57:09.460Z,55.70
2022-09-25T01:58:19.446Z,55.70
2022-09-25T01:59:46.214Z,55.70
2022-09-25T02:01:08.754Z,55.70
2022-09-25T02:02:20.133Z,55.70
2022-09-25T02:03:32.807Z,55.70
2022-09-25T02:04:43.838Z,55.60
2022-09-25T02:05:58.585Z,55.60
2022-09-25T02:07:06.748Z,55.60
2022-09-25T02:08:35.407Z,55.60
2022-09-25T02:09:50.946Z,55.60
2022-09-25T02:11:02.405Z,55.60
2022-09-25T02:12:15.122Z,55.60
2022-09-25T02:13:20.737Z,55.60
2022-09-25T02:14:49.264Z,55.60
2022-09-25T02:15:59.422Z,55.60
2022-09-25T02:17:10.215Z,55.60
2022-09-25T02:18:35.500Z,55.60
2022-09-25T02:19:57.062Z,55.60
2022-09-25T02:21:24.064Z,55.60
2022-09-25T02:22:35.945Z,55.60
2022-09-25T02:23:56.537Z,55.60
2022-09-25T02:25:10.108Z,55.60
2022-09-25T02:26:27.136Z,55.50
2022-09-25T02:27:30.401Z,55.50
2022-09-25T02:28:33.570Z,55.50
2022-09-25T02:29:36.801Z,55.50
2022-09-25T02:30:39.466Z,55.50
2022-09-25T02:32:03.816Z,55.50
2022-09-25T02:33:07.123Z,55.50
2022-09-25T02:34:15.083Z,55.50
2022-09-25T02:35:21.253Z,55.50
2022-09-25T02:36:26.061Z,56.00
2022-09-25T02:37:29.573Z,55.50
2022-09-25T02:38:34.589Z,55.40
2022-09-25T02:39:37.978Z,55.50
2022-09-25T02:41:15.723Z,55.40
2022-09-25T02:42:25.053Z,55.50
2022-09-25T02:44:05.320Z,55.40
2022-09-25T02:45:09.334Z,55.40
2022-09-25T02:46:41.388Z,55.40
2022-09-25T02:48:15.803Z,55.40
2022-09-25T02:49:36.678Z,55.40
2022-09-25T02:50:52.744Z,55.40
2022-09-25T02:51:57.497Z,55.40
2022-09-25T02:53:11.589Z,55.40
2022-09-25T02:54:30.325Z,55.40
2022-09-25T02:56:00.968Z,55.40
2022-09-25T02:57:16.126Z,55.40
2022-09-25T02:58:38.089Z,55.40
2022-09-25T02:59:59.261Z,55.40
2022-09-25T03:01:05.554Z,55.40
2022-09-25T03:02:12.163Z,55.30
2022-09-25T03:03:18.806Z,55.30
2022-09-25T03:04:22.110Z,55.30
2022-09-25T03:05:40.019Z,55.90
2022-09-25T03:06:45.955Z,55.30
2022-09-25T03:08:07.296Z,55.30
2022-09-25T03:09:13.305Z,55.30
2022-09-25T03:10:18.814Z,55.30
2022-09-25T03:11:23.677Z,55.30
2022-09-25T03:12:26.604Z,55.30
2022-09-25T03:13:34.719Z,55.30
2022-09-25T03:14:37.976Z,55.30
2022-09-25T03:15:46.832Z,55.30
2022-09-25T03:16:57.087Z,55.30
2022-09-25T03:18:00.259Z,55.30
2022-09-25T03:19:04.308Z,55.30
2022-09-25T03:20:11.931Z,55.30
2022-09-25T03:21:15.184Z,55.20
2022-09-25T03:22:18.908Z,55.20
2022-09-25T03:23:25.886Z,55.30
2022-09-25T03:24:29.108Z,55.20
2022-09-25T03:25:31.749Z,55.20
2022-09-25T03:26:35.109Z,55.30
2022-09-25T03:27:38.213Z,55.20
2022-09-25T03:28:42.082Z,55.20
2022-09-25T03:29:44.726Z,55.20
2022-09-25T03:31:01.346Z,55.20
2022-09-25T03:32:05.601Z,55.20
2022-09-25T03:33:10.428Z,55.20
2022-09-25T03:34:16.575Z,55.20
2022-09-25T03:35:22.500Z,55.10
2022-09-25T03:36:28.298Z,55.10
2022-09-25T03:37:33.196Z,55.10
2022-09-25T03:38:35.926Z,55.10
2022-09-25T03:39:39.505Z,55.10
2022-09-25T03:40:44.067Z,55.10
2022-09-25T03:41:48.882Z,55.70
2022-09-25T03:42:53.132Z,55.00
2022-09-25T03:44:03.892Z,55.10
2022-09-25T03:45:07.480Z,55.10
2022-09-25T03:46:16.183Z,55.10
2022-09-25T03:47:34.457Z,55.10
2022-09-25T03:48:37.682Z,55.10
2022-09-25T03:49:41.645Z,55.10
2022-09-25T03:50:46.280Z,55.10
2022-09-25T03:51:49.036Z,55.10
2022-09-25T03:53:08.491Z,55.10
2022-09-25T03:54:12.192Z,55.00
2022-09-25T03:55:15.390Z,55.00
2022-09-25T03:56:27.353Z,55.00
2022-09-25T03:57:31.011Z,55.70
2022-09-25T03:58:34.322Z,55.60
2022-09-25T03:59:39.075Z,55.00
2022-09-25T04:00:42.008Z,55.00
2022-09-25T04:01:47.597Z,55.00
2022-09-25T04:02:51.244Z,55.00
2022-09-25T04:03:55.331Z,55.00
2022-09-25T04:04:59.759Z,55.00
2022-09-25T04:06:06.824Z,55.10
2022-09-25T04:07:10.828Z,55.00
2022-09-25T04:08:17.276Z,55.00
2022-09-25T04:09:21.164Z,55.00
2022-09-25T04:10:24.295Z,55.00
2022-09-25T04:11:27.383Z,55.00
2022-09-25T04:12:30.089Z,55.00
2022-09-25T04:13:37.513Z,54.90
2022-09-25T04:14:40.240Z,55.60
2022-09-25T04:15:43.060Z,55.00
2022-09-25T04:16:49.440Z,55.00
2022-09-25T04:17:53.476Z,55.50
2022-09-25T04:18:57.706Z,55.00
2022-09-25T04:20:01.584Z,54.90
2022-09-25T04:21:08.767Z,55.50
2022-09-25T04:22:11.954Z,54.90
2022-09-25T04:23:15.131Z,54.90
2022-09-25T04:24:48.415Z,54.90
2022-09-25T04:25:51.108Z,54.90
2022-09-25T04:26:54.160Z,54.90
2022-09-25T04:27:59.823Z,54.90
2022-09-25T04:29:03.482Z,54.90
2022-09-25T04:30:07.305Z,54.90
2022-09-25T04:31:12.142Z,54.90
2022-09-25T04:32:34.819Z,54.90
2022-09-25T04:33:50.406Z,54.80
2022-09-25T04:34:53.265Z,54.90
2022-09-25T04:35:56.827Z,54.90
2022-09-25T04:37:02.013Z,54.80
2022-09-25T04:38:05.336Z,54.80
2022-09-25T04:39:09.680Z,54.80
2022-09-25T04:40:13.333Z,54.80
2022-09-25T04:41:28.023Z,54.80
2022-09-25T04:42:33.684Z,54.80
2022-09-25T04:43:38.168Z,54.80
2022-09-25T04:45:00.140Z,54.80
2022-09-25T04:46:08.633Z,54.80
2022-09-25T04:47:11.328Z,54.80
2022-09-25T04:48:14.191Z,54.80
2022-09-25T04:49:16.770Z,54.80
2022-09-25T04:50:22.962Z,54.80
2022-09-25T04:51:33.135Z,54.80
2022-09-25T04:52:35.734Z,54.80
2022-09-25T04:53:41.242Z,54.70
2022-09-25T04:54:44.148Z,54.80
2022-09-25T04:55:50.420Z,54.80
2022-09-25T04:56:54.520Z,54.80
2022-09-25T04:57:59.644Z,54.80
2022-09-25T04:59:03.930Z,54.70
2022-09-25T05:00:09.994Z,54.70
2022-09-25T05:01:13.184Z,54.70
2022-09-25T05:02:16.205Z,54.70
2022-09-25T05:03:19.227Z,54.70
2022-09-25T05:04:25.186Z,54.70
2022-09-25T05:05:31.435Z,54.70
2022-09-25T05:06:34.125Z,54.70
2022-09-25T05:07:39.567Z,54.60
2022-09-25T05:08:43.313Z,54.70
2022-09-25T05:09:46.314Z,54.70
2022-09-25T05:10:49.234Z,54.70
2022-09-25T05:11:52.147Z,54.60
2022-09-25T05:12:57.234Z,54.60
2022-09-25T05:14:01.376Z,54.70
2022-09-25T05:15:08.974Z,54.70
2022-09-25T05:16:11.618Z,54.70
2022-09-25T05:17:15.558Z,54.70
2022-09-25T05:18:21.286Z,54.70
2022-09-25T05:19:28.759Z,54.60
2022-09-25T05:20:31.886Z,54.60
2022-09-25T05:21:35.802Z,54.60
2022-09-25T05:22:39.111Z,54.60
2022-09-25T05:23:44.739Z,54.60
2022-09-25T05:24:49.277Z,54.60
2022-09-25T05:26:02.292Z,54.60
2022-09-25T05:27:07.683Z,54.60
2022-09-25T05:28:11.374Z,54.60
2022-09-25T05:29:19.753Z,54.60
2022-09-25T05:30:23.727Z,54.60
2022-09-25T05:31:27.142Z,54.60
2022-09-25T05:32:31.351Z,54.60
2022-09-25T05:33:35.221Z,54.60
2022-09-25T05:34:38.695Z,54.60
2022-09-25T05:35:42.145Z,54.60
2022-09-25T05:36:48.252Z,54.60
2022-09-25T05:37:55.216Z,54.60
2022-09-25T05:38:58.811Z,54.50
2022-09-25T05:40:02.150Z,54.60
2022-09-25T05:41:08.350Z,54.60
2022-09-25T05:42:11.283Z,54.60
2022-09-25T05:43:13.733Z,54.50
2022-09-25T05:44:18.501Z,54.50
2022-09-25T05:45:23.104Z,54.50
2022-09-25T05:46:28.685Z,54.50
2022-09-25T05:47:32.511Z,54.50
2022-09-25T05:48:37.041Z,54.50
2022-09-25T05:49:39.637Z,54.50
2022-09-25T05:50:42.964Z,54.50
2022-09-25T05:51:46.947Z,54.50
2022-09-25T05:52:58.836Z,54.50
2022-09-25T05:54:03.825Z,54.50
2022-09-25T05:55:08.464Z,54.50
2022-09-25T05:56:11.984Z,54.50
2022-09-25T05:57:14.948Z,54.50
2022-09-25T05:58:17.902Z,54.50
2022-09-25T05:59:21.126Z,54.50
2022-09-25T06:00:26.004Z,54.50
2022-09-25T06:01:29.022Z,54.50
2022-09-25T06:02:31.673Z,54.50
2022-09-25T06:03:38.689Z,54.50
2022-09-25T06:04:42.784Z,54.50
2022-09-25T06:05:56.179Z,54.50
2022-09-25T06:07:02.980Z,54.50
2022-09-25T06:08:08.340Z,54.50
2022-09-25T06:09:11.302Z,54.50
2022-09-25T06:10:14.924Z,54.40
2022-09-25T06:11:17.489Z,54.40
2022-09-25T06:12:24.947Z,54.40
2022-09-25T06:13:36.816Z,54.40
2022-09-25T06:14:41.195Z,54.40
2022-09-25T06:15:44.552Z,54.40
2022-09-25T06:16:51.686Z,54.30
2022-09-25T06:17:57.338Z,54.40
2022-09-25T06:19:00.076Z,54.30
2022-09-25T06:20:16.577Z,54.40
2022-09-25T06:21:19.241Z,54.40
2022-09-25T06:22:21.850Z,54.40
2022-09-25T06:23:24.894Z,54.40
2022-09-25T06:24:29.249Z,54.30
2022-09-25T06:25:37.407Z,54.30
2022-09-25T06:26:41.939Z,54.40
2022-09-25T06:27:44.500Z,54.30
2022-09-25T06:28:50.208Z,54.30
2022-09-25T06:29:54.568Z,54.30
2022-09-25T06:31:01.396Z,54.30
2022-09-25T06:32:04.333Z,54.30
2022-09-25T06:33:13.883Z,54.30
2022-09-25T06:34:16.801Z,54.30
2022-09-25T06:35:20.455Z,54.30
2022-09-25T06:36:24.030Z,54.30
2022-09-25T06:37:27.989Z,54.30
2022-09-25T06:38:34.386Z,54.30
2022-09-25T06:39:37.094Z,54.30
2022-09-25T06:40:41.924Z,54.30
2022-09-25T06:41:45.072Z,54.30
2022-09-25T06:42:56.104Z,54.30
2022-09-25T06:43:59.939Z,54.30
2022-09-25T06:45:02.468Z,54.30
2022-09-25T06:46:07.332Z,54.30
2022-09-25T06:47:18.765Z,54.20
2022-09-25T06:48:23.877Z,54.30
2022-09-25T06:49:29.264Z,54.30
2022-09-25T06:50:47.122Z,54.20
2022-09-25T06:51:53.278Z,54.30
2022-09-25T06:52:56.553Z,54.20
2022-09-25T06:53:59.507Z,54.20
2022-09-25T06:56:24.648Z,54.20
2022-09-25T06:57:32.497Z,54.20
2022-09-25T06:58:36.254Z,54.20
2022-09-25T06:59:40.914Z,54.20
2022-09-25T07:00:47.277Z,54.20
2022-09-25T07:01:51.940Z,54.10
2022-09-25T07:03:16.565Z,54.20
2022-09-25T07:04:23.758Z,54.10
2022-09-25T07:05:32.570Z,54.20
2022-09-25T07:06:41.229Z,54.20
2022-09-25T07:07:45.137Z,54.10
2022-09-25T07:08:50.144Z,54.10
2022-09-25T07:09:53.199Z,54.10
2022-09-25T07:11:00.954Z,54.10
2022-09-25T07:12:03.524Z,54.10
2022-09-25T07:13:06.654Z,54.20
2022-09-25T07:14:10.258Z,54.10
2022-09-25T07:15:12.931Z,54.20
2022-09-25T07:16:17.750Z,54.10
2022-09-25T07:17:20.412Z,54.10
2022-09-25T07:18:24.505Z,54.10
2022-09-25T07:19:36.194Z,54.00
2022-09-25T07:20:39.176Z,54.10
2022-09-25T07:23:04.210Z,54.10
2022-09-25T07:24:08.501Z,54.10
2022-09-25T07:25:14.670Z,54.10
2022-09-25T07:26:22.595Z,54.10
2022-09-25T07:27:25.383Z,54.10
2022-09-25T07:28:37.318Z,54.00
2022-09-25T07:29:39.824Z,54.10
2022-09-25T07:30:45.326Z,54.00
2022-09-25T07:31:48.333Z,54.10
2022-09-25T07:32:50.859Z,54.10
2022-09-25T07:33:58.080Z,54.10
2022-09-25T07:35:06.674Z,54.10
2022-09-25T07:36:11.697Z,54.00
2022-09-25T07:37:15.527Z,54.10
2022-09-25T07:38:19.451Z,54.10
2022-09-25T07:39:23.139Z,54.00
2022-09-25T07:40:28.874Z,54.00
2022-09-25T07:41:32.312Z,54.00
2022-09-25T07:42:36.563Z,54.00
2022-09-25T07:43:40.273Z,54.00
2022-09-25T07:44:48.529Z,54.00
2022-09-25T07:45:54.152Z,54.10
2022-09-25T07:46:58.005Z,54.00
2022-09-25T07:48:03.938Z,54.00
2022-09-25T07:49:07.866Z,54.00
2022-09-25T07:50:15.413Z,54.00
2022-09-25T07:51:19.405Z,54.00
2022-09-25T07:52:23.598Z,53.90
2022-09-25T07:53:27.199Z,54.00
2022-09-25T07:54:33.438Z,54.00
2022-09-25T07:55:36.959Z,54.00
2022-09-25T07:56:42.101Z,54.00
2022-09-25T07:57:44.805Z,54.00
2022-09-25T07:58:48.340Z,54.00
2022-09-25T07:59:51.337Z,53.90
2022-09-25T08:01:01.115Z,53.90
2022-09-25T08:02:03.961Z,53.90
2022-09-25T08:03:09.185Z,54.00
2022-09-25T08:04:12.218Z,54.00
2022-09-25T08:05:15.300Z,54.00
2022-09-25T08:06:18.151Z,53.90
2022-09-25T08:07:22.497Z,53.90
2022-09-25T08:08:25.537Z,53.90
2022-09-25T08:09:28.496Z,53.90
2022-09-25T08:10:34.602Z,53.90
2022-09-25T08:11:38.491Z,53.90
2022-09-25T08:12:44.925Z,53.90
2022-09-25T08:13:49.507Z,53.90
2022-09-25T08:14:53.156Z,53.90
2022-09-25T08:15:59.297Z,53.80
2022-09-25T08:17:03.139Z,53.90
2022-09-25T08:18:05.700Z,53.80
2022-09-25T08:19:12.483Z,53.90
2022-09-25T08:20:15.690Z,53.90
2022-09-25T08:21:21.043Z,53.90
2022-09-25T08:22:23.749Z,53.80
2022-09-25T08:23:28.739Z,53.90
2022-09-25T08:24:31.666Z,53.80
2022-09-25T08:25:37.780Z,53.80
2022-09-25T08:26:44.513Z,53.80
2022-09-25T08:27:47.754Z,53.80
2022-09-25T08:28:51.742Z,53.80
2022-09-25T08:29:55.210Z,53.80
2022-09-25T08:31:00.196Z,53.80
2022-09-25T08:32:03.959Z,53.80
2022-09-25T08:33:15.484Z,53.80
2022-09-25T08:34:40.209Z,53.80
2022-09-25T08:35:54.647Z,53.80
2022-09-25T08:36:59.866Z,53.80
2022-09-25T08:38:05.188Z,53.80
2022-09-25T08:39:08.667Z,53.80
2022-09-25T08:40:19.171Z,53.80
2022-09-25T08:41:58.588Z,53.70
2022-09-25T08:43:01.366Z,53.80
2022-09-25T08:44:07.514Z,53.80
2022-09-25T08:45:39.656Z,53.70
2022-09-25T08:47:08.393Z,53.70
2022-09-25T08:48:44.991Z,53.70
2022-09-25T08:50:18.797Z,53.70
2022-09-25T08:51:23.315Z,53.70
2022-09-25T08:52:26.242Z,53.80
2022-09-25T08:53:28.817Z,53.70
2022-09-25T08:54:35.092Z,53.70
2022-09-25T08:56:00.473Z,53.70
2022-09-25T08:57:29.592Z,53.70
2022-09-25T08:58:42.696Z,53.60
2022-09-25T08:59:59.799Z,53.60
2022-09-25T09:01:10.746Z,53.70
2022-09-25T09:02:19.097Z,53.60
2022-09-25T09:03:25.640Z,53.60
2022-09-25T09:04:32.819Z,53.60
2022-09-25T09:05:40.630Z,53.60
2022-09-25T09:06:53.047Z,53.70
2022-09-25T09:08:20.371Z,53.70
2022-09-25T09:09:41.940Z,53.60
2022-09-25T09:10:57.256Z,53.70
2022-09-25T09:12:28.922Z,53.60
2022-09-25T09:13:51.405Z,53.60
2022-09-25T09:15:06.917Z,53.70
2022-09-25T09:16:19.132Z,53.60
2022-09-25T09:17:28.251Z,53.60
2022-09-25T09:18:58.075Z,53.60
2022-09-25T09:20:14.277Z,53.60
2022-09-25T09:21:26.940Z,53.60
2022-09-25T09:22:45.175Z,53.70
2022-09-25T09:24:09.418Z,53.60
2022-09-25T09:25:47.977Z,53.60
2022-09-25T09:27:09.645Z,53.60
2022-09-25T09:28:41.984Z,53.50
2022-09-25T09:30:04.547Z,53.60
2022-09-25T09:31:32.528Z,53.60
2022-09-25T09:32:44.064Z,53.60
2022-09-25T09:34:08.613Z,53.50
2022-09-25T09:35:39.479Z,53.50
2022-09-25T09:37:02.222Z,53.50
2022-09-25T09:38:16.467Z,53.50
2022-09-25T09:39:41.125Z,53.60
2022-09-25T09:41:08.289Z,53.50
2022-09-25T09:42:23.442Z,53.50
2022-09-25T09:43:59.160Z,53.60
2022-09-25T09:45:29.418Z,53.50
2022-09-25T09:47:07.826Z,53.50
2022-09-25T09:48:33.849Z,53.50
2022-09-25T09:50:02.575Z,53.50
2022-09-25T09:51:37.903Z,53.50
2022-09-25T09:52:44.107Z,53.50
2022-09-25T09:53:55.100Z,53.50
2022-09-25T09:55:21.974Z,53.50
2022-09-25T09:56:35.800Z,53.40
2022-09-25T09:58:05.095Z,53.50
2022-09-25T09:59:25.179Z,53.40
2022-09-25T10:00:29.715Z,53.50
2022-09-25T10:01:41.703Z,53.40
2022-09-25T10:03:20.676Z,53.40
2022-09-25T10:04:30.066Z,53.50
2022-09-25T10:05:38.604Z,53.50
2022-09-25T10:06:55.897Z,53.50
2022-09-25T10:08:01.178Z,53.50
2022-09-25T10:09:04.341Z,53.40
2022-09-25T10:10:15.216Z,53.50
2022-09-25T10:11:22.153Z,53.40
2022-09-25T10:12:33.150Z,53.50
2022-09-25T10:13:39.559Z,53.40
2022-09-25T10:14:47.868Z,53.40
2022-09-25T10:16:02.166Z,53.40
2022-09-25T10:17:07.191Z,53.50
2022-09-25T10:18:10.131Z,53.50
2022-09-25T10:19:22.452Z,53.50
2022-09-25T10:20:32.621Z,53.40
2022-09-25T10:21:46.004Z,53.40
2022-09-25T10:22:52.527Z,53.50
2022-09-25T10:23:59.798Z,53.50
2022-09-25T10:25:09.582Z,53.40
2022-09-25T10:26:36.957Z,53.40
2022-09-25T10:27:48.879Z,53.40
2022-09-25T10:28:53.413Z,53.40
2022-09-25T10:30:12.075Z,53.40
2022-09-25T10:31:17.481Z,53.50
2022-09-25T10:32:21.599Z,53.40
2022-09-25T10:33:26.819Z,53.50
2022-09-25T10:34:32.499Z,53.40
2022-09-25T10:35:38.588Z,53.40
2022-09-25T10:36:48.144Z,53.40
2022-09-25T10:37:56.471Z,53.40
2022-09-25T10:39:18.039Z,53.40
2022-09-25T10:40:46.560Z,53.40
2022-09-25T10:43:14.893Z,53.40
2022-09-25T10:44:37.470Z,53.40
2022-09-25T10:45:40.854Z,53.40
2022-09-25T10:47:01.825Z,53.40
2022-09-25T10:48:46.858Z,53.50
2022-09-25T10:50:09.688Z,53.40
2022-09-25T10:51:18.450Z,53.40
2022-09-25T10:52:23.386Z,53.40
2022-09-25T10:53:30.511Z,53.40
2022-09-25T10:54:40.353Z,53.50
2022-09-25T10:55:52.000Z,53.40
2022-09-25T10:57:13.439Z,53.50
2022-09-25T10:58:33.281Z,53.40
2022-09-25T10:59:37.241Z,53.40
2022-09-25T11:00:42.558Z,53.40
2022-09-25T11:01:47.659Z,53.50
2022-09-25T11:02:57.183Z,53.40
2022-09-25T11:04:04.134Z,53.50
2022-09-25T11:05:16.055Z,53.50
2022-09-25T11:06:27.707Z,53.40
2022-09-25T11:07:31.151Z,53.40
2022-09-25T11:08:39.225Z,53.40
2022-09-25T11:09:50.806Z,53.50
2022-09-25T11:10:58.090Z,53.50
2022-09-25T11:12:31.744Z,53.50
2022-09-25T11:13:46.588Z,53.40
2022-09-25T11:15:02.325Z,53.40
2022-09-25T11:16:10.855Z,53.40
2022-09-25T11:17:41.571Z,53.50
2022-09-25T11:18:47.923Z,53.50
2022-09-25T11:20:16.652Z,53.50
2022-09-25T11:21:37.518Z,53.40
2022-09-25T11:23:19.027Z,53.40
2022-09-25T11:24:41.160Z,54.00
2022-09-25T11:26:06.058Z,53.50
2022-09-25T11:27:19.185Z,53.50
2022-09-25T11:29:07.107Z,53.50
2022-09-25T11:30:24.342Z,53.50
2022-09-25T11:31:37.755Z,53.50
2022-09-25T11:32:54.488Z,53.50
2022-09-25T11:34:14.067Z,53.50
2022-09-25T11:35:50.110Z,53.50
2022-09-25T11:37:25.798Z,53.50
2022-09-25T11:39:09.815Z,53.50
2022-09-25T11:40:33.734Z,53.50
2022-09-25T11:41:47.147Z,53.50
2022-09-25T11:43:06.155Z,53.50
2022-09-25T11:44:10.170Z,53.50
2022-09-25T11:45:21.011Z,53.50
2022-09-25T11:46:46.106Z,53.50
2022-09-25T11:47:55.155Z,53.50
2022-09-25T11:49:16.467Z,53.50
2022-09-25T11:50:22.605Z,53.60
2022-09-25T11:51:42.031Z,53.50
2022-09-25T11:53:18.504Z,53.60
2022-09-25T11:54:34.140Z,53.50
2022-09-25T11:56:06.902Z,53.60
2022-09-25T11:57:23.170Z,53.60
2022-09-25T11:58:26.538Z,53.60
2022-09-25T12:00:07.239Z,53.60
2022-09-25T12:01:23.612Z,53.60
2022-09-25T12:02:46.093Z,53.70
2022-09-25T12:03:52.408Z,53.70
2022-09-25T12:05:28.717Z,53.60
2022-09-25T12:07:00.764Z,53.60
2022-09-25T12:08:12.285Z,53.60
2022-09-25T12:09:32.861Z,53.70
2022-09-25T12:11:13.083Z,53.60
2022-09-25T12:12:33.955Z,53.60
2022-09-25T12:14:15.008Z,53.70
2022-09-25T12:15:43.917Z,53.70
2022-09-25T12:17:13.228Z,53.60
2022-09-25T12:18:21.835Z,53.60
2022-09-25T12:19:46.106Z,53.80
2022-09-25T12:21:00.076Z,53.70
2022-09-25T12:22:17.269Z,53.70
2022-09-25T12:23:39.930Z,53.70
2022-09-25T12:24:45.818Z,53.70
2022-09-25T12:26:16.409Z,53.70
2022-09-25T12:27:43.779Z,53.70
2022-09-25T12:29:02.153Z,53.80
2022-09-25T12:30:19.137Z,53.70
2022-09-25T12:31:40.669Z,53.80
2022-09-25T12:33:07.241Z,53.80
2022-09-25T12:34:26.782Z,53.70
2022-09-25T12:35:57.644Z,53.80
2022-09-25T12:37:26.777Z,53.80
2022-09-25T12:38:55.448Z,53.80
2022-09-25T12:40:15.115Z,53.80
2022-09-25T12:41:30.498Z,53.80
2022-09-25T12:42:44.972Z,53.80
2022-09-25T12:43:57.333Z,53.80
2022-09-25T12:45:18.152Z,53.80
2022-09-25T12:46:21.075Z,53.90
2022-09-25T12:47:33.170Z,53.90
2022-09-25T12:48:50.537Z,53.90
2022-09-25T12:50:07.655Z,53.90
2022-09-25T12:51:40.447Z,53.80
2022-09-25T12:52:58.447Z,53.80
2022-09-25T12:54:17.624Z,53.80
2022-09-25T12:55:27.142Z,53.90
2022-09-25T12:56:44.149Z,53.90
2022-09-25T12:57:58.555Z,53.90
2022-09-25T12:59:10.775Z,53.90
2022-09-25T13:00:28.188Z,53.90
2022-09-25T13:01:42.280Z,54.00
2022-09-25T13:03:14.364Z,54.00
2022-09-25T13:04:42.039Z,54.10
2022-09-25T13:05:51.152Z,54.00
2022-09-25T13:07:05.967Z,54.00
2022-09-25T13:08:16.687Z,54.00
2022-09-25T13:09:27.298Z,54.00
2022-09-25T13:10:49.082Z,54.00
2022-09-25T13:11:59.293Z,54.50
2022-09-25T13:13:10.687Z,54.00
2022-09-25T13:14:40.826Z,54.00
2022-09-25T13:15:45.164Z,54.10
2022-09-25T13:16:49.722Z,54.00
2022-09-25T13:17:56.732Z,54.00
2022-09-25T13:19:27.296Z,54.00
2022-09-25T13:20:58.565Z,54.00
2022-09-25T13:22:10.923Z,54.10
2022-09-25T13:23:17.764Z,54.10
2022-09-25T13:24:22.702Z,54.10
2022-09-25T13:25:27.251Z,54.10
2022-09-25T13:26:47.181Z,54.10
2022-09-25T13:27:55.223Z,54.10
2022-09-25T13:29:05.591Z,54.20
2022-09-25T13:30:21.525Z,54.20
2022-09-25T13:31:33.434Z,54.20
2022-09-25T13:32:39.112Z,54.20
2022-09-25T13:34:02.507Z,54.10
2022-09-25T13:35:19.617Z,54.20
2022-09-25T13:36:26.606Z,54.10
2022-09-25T13:37:34.144Z,54.10
2022-09-25T13:39:01.180Z,54.10
2022-09-25T13:40:35.977Z,54.10
2022-09-25T13:41:55.115Z,54.20
2022-09-25T13:43:24.953Z,54.20
2022-09-25T13:44:50.494Z,54.20
2022-09-25T13:46:24.373Z,54.20
2022-09-25T13:47:31.532Z,54.30
2022-09-25T13:48:37.109Z,54.30
2022-09-25T13:50:10.180Z,54.30
2022-09-25T13:51:22.753Z,54.20
2022-09-25T13:52:41.074Z,54.30
2022-09-25T13:54:05.227Z,54.30
2022-09-25T13:55:21.387Z,54.30
2022-09-25T13:56:34.138Z,54.30
2022-09-25T13:58:01.374Z,54.30
2022-09-25T13:59:16.103Z,54.30
2022-09-25T14:00:18.720Z,54.30
2022-09-25T14:01:37.425Z,54.30
2022-09-25T14:02:48.130Z,54.30
2022-09-25T14:03:51.645Z,54.30
2022-09-25T14:04:57.054Z,54.30
2022-09-25T14:06:02.187Z,54.40
2022-09-25T14:07:26.029Z,54.30
2022-09-25T14:08:33.808Z,54.30
2022-09-25T14:09:43.874Z,54.40
2022-09-25T14:10:54.788Z,54.30
2022-09-25T14:12:04.236Z,54.90
2022-09-25T14:13:13.077Z,54.40
2022-09-25T14:14:30.073Z,54.40
2022-09-25T14:15:37.522Z,54.40
2022-09-25T14:16:46.426Z,54.40
2022-09-25T14:17:52.850Z,54.30
2022-09-25T14:18:58.297Z,54.40
2022-09-25T14:20:05.297Z,54.40
2022-09-25T14:21:10.137Z,54.40
2022-09-25T14:22:43.264Z,54.40
2022-09-25T14:23:56.428Z,54.50
2022-09-25T14:25:02.404Z,54.40
2022-09-25T14:26:18.495Z,54.40
2022-09-25T14:27:26.229Z,54.40
2022-09-25T14:28:31.240Z,54.50
2022-09-25T14:29:40.791Z,54.40
2022-09-25T14:31:22.433Z,54.50
2022-09-25T14:32:56.065Z,54.50
2022-09-25T14:34:08.053Z,54.50
2022-09-25T14:35:16.379Z,54.50
2022-09-25T14:36:49.217Z,54.50
2022-09-25T14:38:07.475Z,54.50
2022-09-25T14:39:21.623Z,54.50
2022-09-25T14:40:37.222Z,54.50
2022-09-25T14:42:03.114Z,54.50
2022-09-25T14:43:14.883Z,54.60
2022-09-25T14:44:27.620Z,54.60
2022-09-25T14:45:42.679Z,54.50
2022-09-25T14:46:49.977Z,54.60
2022-09-25T14:48:02.937Z,54.60
2022-09-25T14:49:38.661Z,54.50
2022-09-25T14:50:53.406Z,54.70
2022-09-25T14:52:02.585Z,54.60
2022-09-25T14:53:12.131Z,54.60
2022-09-25T14:54:19.376Z,54.60
2022-09-25T14:55:24.541Z,54.70
2022-09-25T14:56:33.239Z,54.70
2022-09-25T14:57:39.692Z,54.70
2022-09-25T14:58:54.633Z,54.60
2022-09-25T15:00:04.237Z,54.70
2022-09-25T15:01:15.696Z,54.70
2022-09-25T15:02:31.773Z,54.70
2022-09-25T15:03:42.072Z,54.70
2022-09-25T15:04:47.773Z,54.70
2022-09-25T15:05:51.131Z,54.70
2022-09-25T15:07:03.324Z,54.70
2022-09-25T15:09:56.041Z,54.80
2022-09-25T15:11:18.121Z,54.80
2022-09-25T15:12:34.098Z,54.80
2022-09-25T15:13:37.223Z,54.80
2022-09-25T15:14:42.421Z,54.80
2022-09-25T15:16:12.800Z,54.90
2022-09-25T15:17:24.239Z,54.80
2022-09-25T15:18:31.035Z,54.80
2022-09-25T15:19:53.486Z,54.80
2022-09-25T15:20:57.149Z,54.90
2022-09-25T15:22:01.982Z,54.90
2022-09-25T15:23:06.210Z,55.00
2022-09-25T15:24:16.196Z,54.90
2022-09-25T15:25:28.948Z,54.90